Soleado — 6YRX8 — position and weather

sailwx.info

Track history (hours):
 
Tides and Currents Weather Stations Pressure Air Temp Water Temp Dewpoint Dewpoint Depression Visibility Wind Speed Wind Dir Waves Ship Positions

Soleado

Last reported at 2018-Jun-19 22:46 UTC. Time now 2018-Jun-25 19:31 UTC.
Position N 25°54' W 079°57'.

Length 16 m.

Type: Pleasure craft. MMSI: 339377000.

Date/timePositionNaut miles runAvg speedWind from/ knotsBaromVisibWave heightAir tempDewpointWater temp
2018-Jun-19 22:46N 25°54' W 079°57'411.9
2018-Jun-19 22:28N 25°54' W 080°01'611.3
2018-Jun-19 21:58N 25°54' W 080°08'3 6.5
2018-Jun-19 21:28N 25°57' W 080°08'1 2.6
2018-Jun-19 20:57N 25°59' W 080°08'0 0.0
2018-Jun-19 20:27N 25°59' W 080°08'0 0.0
2018-Jun-19 19:57N 25°59' W 080°08'0 0.0
2018-Jun-19 19:27N 25°59' W 080°08'0 0.0
2018-Jun-19 18:57N 25°59' W 080°08'0 0.0
2018-Jun-19 18:30N 25°59' W 080°08'0 0.0
2018-Jun-19 18:00N 25°59' W 080°08'0 0.0
2018-Jun-19 17:30N 25°59' W 080°08'0 0.0
2018-Jun-19 17:00N 25°59' W 080°08'0 0.0
2018-Jun-19 16:27N 25°59' W 080°08'0 0.0
2018-Jun-19 16:00N 25°59' W 080°08'0 0.0
2018-Jun-19 15:30N 25°59' W 080°08'0 0.0
2018-Jun-19 15:00N 25°59' W 080°08'0 0.0
2018-Jun-19 14:21N 25°59' W 080°08'0 0.0
2018-Jun-19 13:54N 25°59' W 080°08'0 0.0
2018-Jun-19 13:28N 25°59' W 080°08'0 0.0
2018-Jun-19 12:57N 25°59' W 080°08'0 0.0
2018-Jun-19 12:28N 25°59' W 080°08'0 0.0
2018-Jun-19 11:58N 25°59' W 080°08'0 0.0
2018-Jun-19 11:27N 25°59' W 080°08'0 0.0
2018-Jun-19 11:01N 25°59' W 080°08'0 0.0
2018-Jun-19 10:30N 25°59' W 080°08'0 0.0
2018-Jun-19 10:01N 25°59' W 080°08'0 0.0
2018-Jun-19 09:27N 25°59' W 080°08'0 0.0
2018-Jun-19 09:01N 25°59' W 080°08'0 0.0
2018-Jun-19 08:31N 25°59' W 080°08'0 0.0
2018-Jun-19 08:00N 25°59' W 080°08'0 0.0
2018-Jun-19 07:31N 25°59' W 080°08'0 0.0
2018-Jun-19 07:01N 25°59' W 080°08'0 0.0
2018-Jun-19 06:30N 25°59' W 080°08'0 0.0
2018-Jun-19 05:49N 25°59' W 080°08'0 0.0
2018-Jun-19 05:31N 25°59' W 080°08'0 0.0
2018-Jun-19 05:00N 25°59' W 080°08'0 0.0
2018-Jun-19 04:30N 25°59' W 080°08'0 0.0
2018-Jun-19 03:52N 25°59' W 080°08'0 0.0
2018-Jun-19 03:21N 25°59' W 080°08'0 0.0
2018-Jun-19 02:55N 25°59' W 080°08'0 0.0
2018-Jun-19 02:24N 25°59' W 080°08'0 0.0
2018-Jun-19 01:54N 25°59' W 080°08'0 0.0
2018-Jun-19 01:24N 25°59' W 080°08'0 0.0
2018-Jun-19 00:54N 25°59' W 080°08'0 0.0
2018-Jun-19 00:24N 25°59' W 080°08'0 0.0
2018-Jun-18 23:58N 25°59' W 080°08'0 0.0
2018-Jun-18 23:28N 25°59' W 080°08'0 0.0
2018-Jun-18 22:57N 25°59' W 080°08'0 0.0
2018-Jun-18 22:27N 25°59' W 080°08'0 0.0
2018-Jun-18 21:57N 25°59' W 080°08'0 0.0
2018-Jun-18 21:28N 25°59' W 080°08'0 0.4
2018-Jun-18 20:54N 25°59' W 080°08'2 5.6
2018-Jun-18 20:31N 26°01' W 080°07'3 5.0
2018-Jun-18 20:00N 26°03' W 080°07'1 2.5
2018-Jun-18 19:28N 26°05' W 080°07'3 6.0
2018-Jun-18 18:58N 26°02' W 080°06'612.3
2018-Jun-18 18:28N 25°56' W 080°06'810.5
2018-Jun-18 17:45N 25°48' W 080°06'2 9.9
2018-Jun-18 17:31N 25°46' W 080°07'3 5.3
2018-Jun-18 17:01N 25°48' W 080°09'0 0.7
2018-Jun-18 16:28N 25°48' W 080°09'0 0.0
2018-Jun-18 15:58N 25°48' W 080°09'0 0.0
2018-Jun-18 15:19N 25°48' W 080°09'0 0.0
2018-Jun-18 14:58N 25°48' W 080°09'0 0.0
2018-Jun-18 14:28N 25°48' W 080°09'0 0.0
2018-Jun-18 13:49N 25°48' W 080°09'0 0.0
2018-Jun-18 13:19N 25°48' W 080°09'0 0.0
2018-Jun-18 12:49N 25°48' W 080°09'0 0.0
2018-Jun-18 12:25N 25°48' W 080°09'0 0.0
2018-Jun-18 11:52N 25°48' W 080°09'0 0.0
2018-Jun-18 11:22N 25°48' W 080°09'0 0.0
2018-Jun-18 10:58N 25°48' W 080°09'0 0.0
2018-Jun-18 10:28N 25°48' W 080°09'0 0.0
2018-Jun-18 09:58N 25°48' W 080°09'0 0.0
2018-Jun-18 09:28N 25°48' W 080°09'0 0.0
2018-Jun-18 08:58N 25°48' W 080°09'0 0.0
2018-Jun-18 08:28N 25°48' W 080°09'0 0.0
2018-Jun-18 07:58N 25°48' W 080°09'0 0.0
2018-Jun-18 07:28N 25°48' W 080°09'0 0.0
2018-Jun-18 06:55N 25°48' W 080°09'0 0.0
2018-Jun-18 06:28N 25°48' W 080°09'0 0.0
2018-Jun-18 05:28N 25°48' W 080°09'0 0.0
2018-Jun-18 04:58N 25°48' W 080°09'0 0.0
2018-Jun-18 04:28N 25°48' W 080°09'0 0.0
2018-Jun-18 03:58N 25°48' W 080°09'0 0.0
2018-Jun-18 03:28N 25°48' W 080°09'0 0.0
2018-Jun-18 02:58N 25°48' W 080°09'0 0.0
2018-Jun-18 02:28N 25°48' W 080°09'0 0.0
2018-Jun-18 01:58N 25°48' W 080°09'0 0.0
2018-Jun-18 01:25N 25°48' W 080°09'0 0.0
2018-Jun-18 00:58N 25°48' W 080°09'0 0.0
2018-Jun-18 00:28N 25°48' W 080°09'1 2.7
2018-Jun-18 00:00N 25°47' W 080°09'2 4.8
2018-Jun-17 23:29N 25°45' W 080°11'2 0.3
2018-Jun-17 18:51N 25°44' W 080°11'3 8.1
2018-Jun-17 18:30N 25°46' W 080°11'2 3.8
2018-Jun-17 18:00N 25°48' W 080°09'0 0.7
2018-Jun-17 17:27N 25°48' W 080°09'0 0.0
2018-Jun-17 16:57N 25°48' W 080°09'0 0.0
2018-Jun-17 16:27N 25°48' W 080°09'0 0.0
2018-Jun-17 16:00N 25°48' W 080°09'0 0.0
2018-Jun-17 15:27N 25°48' W 080°09'0 0.0
2018-Jun-17 15:00N 25°48' W 080°09'0 0.0
2018-Jun-17 14:27N 25°48' W 080°09'0 0.0
2018-Jun-17 14:00N 25°48' W 080°09'0 0.0
2018-Jun-17 13:30N 25°48' W 080°09'0 0.0
2018-Jun-17 13:00N 25°48' W 080°09'0 0.0
2018-Jun-17 12:27N 25°48' W 080°09'0 0.0
2018-Jun-17 12:00N 25°48' W 080°09'0 0.0
2018-Jun-17 11:21N 25°48' W 080°09'0 0.0
2018-Jun-17 11:00N 25°48' W 080°09'0 0.0
2018-Jun-17 10:30N 25°48' W 080°09'0 0.0
2018-Jun-17 10:00N 25°48' W 080°09'0 0.0
2018-Jun-17 09:21N 25°48' W 080°09'0 0.0
2018-Jun-17 09:00N 25°48' W 080°09'0 0.0
2018-Jun-17 08:21N 25°48' W 080°09'0 0.0
2018-Jun-17 07:57N 25°48' W 080°09'0 0.0
2018-Jun-17 07:24N 25°48' W 080°09'0 0.0
2018-Jun-17 06:54N 25°48' W 080°09'0 0.0
2018-Jun-17 06:30N 25°48' W 080°09'0 0.0
2018-Jun-17 05:57N 25°48' W 080°09'0 0.0
2018-Jun-17 05:24N 25°48' W 080°09'0 0.0
2018-Jun-17 04:51N 25°48' W 080°09'0 0.0
2018-Jun-17 04:27N 25°48' W 080°09'0 0.0
2018-Jun-17 03:57N 25°48' W 080°09'0 0.0
2018-Jun-17 03:27N 25°48' W 080°09'0 0.0
2018-Jun-17 03:00N 25°48' W 080°09'0 0.0
2018-Jun-17 02:27N 25°48' W 080°09'0 0.0
2018-Jun-17 02:00N 25°48' W 080°09'0 0.0
2018-Jun-17 01:30N 25°48' W 080°09'0 0.0
2018-Jun-17 01:00N 25°48' W 080°09'0 0.0
2018-Jun-17 00:30N 25°48' W 080°09'0 0.0
2018-Jun-16 23:56N 25°48' W 080°09'2 3.5
2018-Jun-16 23:30N 25°46' W 080°09'3 0.6
2018-Jun-16 18:22N 25°44' W 080°11'3 7.2
2018-Jun-16 18:01N 25°46' W 080°11'2 3.7
2018-Jun-16 17:29N 25°48' W 080°09'0 0.7
2018-Jun-16 16:54N 25°48' W 080°09'0 0.0
2018-Jun-16 16:24N 25°48' W 080°09'0 0.0
2018-Jun-16 15:57N 25°48' W 080°09'0 0.0
2018-Jun-16 15:30N 25°48' W 080°09'0 0.0
2018-Jun-16 15:00N 25°48' W 080°09'0 0.0
2018-Jun-16 14:30N 25°48' W 080°09'0 0.0
2018-Jun-16 14:00N 25°48' W 080°09'0 0.0
2018-Jun-16 13:30N 25°48' W 080°09'0 0.0
2018-Jun-16 12:57N 25°48' W 080°09'0 0.0
2018-Jun-16 12:30N 25°48' W 080°09'0 0.0
2018-Jun-16 12:00N 25°48' W 080°09'0 0.0
2018-Jun-16 11:30N 25°48' W 080°09'0 0.0
2018-Jun-16 11:00N 25°48' W 080°09'0 0.0
2018-Jun-16 10:30N 25°48' W 080°09'0 0.0
2018-Jun-16 10:00N 25°48' W 080°09'0 0.0
2018-Jun-16 09:30N 25°48' W 080°09'0 0.0
2018-Jun-16 09:00N 25°48' W 080°09'0 0.0
2018-Jun-16 08:30N 25°48' W 080°09'0 0.0
2018-Jun-16 08:00N 25°48' W 080°09'0 0.0
2018-Jun-16 07:30N 25°48' W 080°09'0 0.0
2018-Jun-16 07:00N 25°48' W 080°09'0 0.0
2018-Jun-16 06:30N 25°48' W 080°09'0 0.0
2018-Jun-16 06:00N 25°48' W 080°09'0 0.0
2018-Jun-16 05:27N 25°48' W 080°09'0 0.0
2018-Jun-16 05:00N 25°48' W 080°09'0 0.0
2018-Jun-16 04:24N 25°48' W 080°09'0 0.0
2018-Jun-16 03:54N 25°48' W 080°09'0 0.0
2018-Jun-16 03:30N 25°48' W 080°09'0 0.0
2018-Jun-16 03:00N 25°48' W 080°09'0 0.0
2018-Jun-16 02:24N 25°48' W 080°09'0 0.0
2018-Jun-16 01:54N 25°48' W 080°09'0 0.0
2018-Jun-16 01:24N 25°48' W 080°09'0 0.0
2018-Jun-16 01:00N 25°48' W 080°09'0 0.0
2018-Jun-16 00:27N 25°48' W 080°09'0 0.0
2018-Jun-15 23:57N 25°48' W 080°09'0 0.0
2018-Jun-15 23:30N 25°48' W 080°09'0 0.0
2018-Jun-15 22:57N 25°48' W 080°09'0 0.0
2018-Jun-15 22:30N 25°48' W 080°09'0 0.0
2018-Jun-15 22:00N 25°48' W 080°09'0 0.0
2018-Jun-15 21:30N 25°48' W 080°09'0 0.0
2018-Jun-15 20:57N 25°48' W 080°09'0 0.0
2018-Jun-15 20:18N 25°48' W 080°09'0 0.0
2018-Jun-15 20:00N 25°48' W 080°09'1 1.0
2018-Jun-15 19:28N 25°47' W 080°09'2 3.8
2018-Jun-15 19:00N 25°46' W 080°08'5 7.1
2018-Jun-15 18:21N 25°50' W 080°06'3 9.5
2018-Jun-15 18:00N 25°53' W 080°07'3 6.2
2018-Jun-15 17:30N 25°56' W 080°08'2 3.0
2018-Jun-15 16:43N 25°59' W 080°08'0 0.0
2018-Jun-15 16:19N 25°59' W 080°08'0 0.0
2018-Jun-15 15:49N 25°59' W 080°08'0 0.0
2018-Jun-15 15:19N 25°59' W 080°08'0 0.0
2018-Jun-15 14:49N 25°59' W 080°08'0 0.0
2018-Jun-15 14:19N 25°59' W 080°08'0 0.0
2018-Jun-15 13:49N 25°59' W 080°08'0 0.0
2018-Jun-15 13:19N 25°59' W 080°08'0 0.0
2018-Jun-15 12:49N 25°59' W 080°08'0 0.0
2018-Jun-15 12:19N 25°59' W 080°08'0 0.0
2018-Jun-15 11:49N 25°59' W 080°08'0 0.0
2018-Jun-15 11:19N 25°59' W 080°08'0 0.0
2018-Jun-15 10:49N 25°59' W 080°08'0 0.0
2018-Jun-15 10:07N 25°59' W 080°08'0 0.0
2018-Jun-15 09:55N 25°59' W 080°08'0 0.0
2018-Jun-15 09:07N 25°59' W 080°08'0 0.0
2018-Jun-15 08:55N 25°59' W 080°08'0 0.0
2018-Jun-15 08:25N 25°59' W 080°08'0 0.0
2018-Jun-15 07:43N 25°59' W 080°08'0 0.0
2018-Jun-15 07:25N 25°59' W 080°08'0 0.0
2018-Jun-15 06:55N 25°59' W 080°08'0 0.0
2018-Jun-15 06:25N 25°59' W 080°08'0 0.0
2018-Jun-15 05:55N 25°59' W 080°08'0 0.0
2018-Jun-15 04:31N 25°59' W 080°08'0 0.0
2018-Jun-15 04:25N 25°59' W 080°08'0 0.0
2018-Jun-15 03:55N 25°59' W 080°08'0 0.0
2018-Jun-15 03:13N 25°59' W 080°08'0 0.0
2018-Jun-15 02:43N 25°59' W 080°08'0 0.0
2018-Jun-15 02:13N 25°59' W 080°08'0 0.0
2018-Jun-15 01:49N 25°59' W 080°08'0 0.0
2018-Jun-15 01:19N 25°59' W 080°08'0 0.0
2018-Jun-15 00:49N 25°59' W 080°08'0 0.0
2018-Jun-15 00:19N 25°59' W 080°08'0 0.0
2018-Jun-14 23:49N 25°59' W 080°08'0 0.0
2018-Jun-14 23:22N 25°59' W 080°08'0 0.0
2018-Jun-14 22:49N 25°59' W 080°08'0 0.0
2018-Jun-14 22:22N 25°59' W 080°08'0 0.0
2018-Jun-14 21:52N 25°59' W 080°08'0 0.0
2018-Jun-14 21:25N 25°59' W 080°08'0 0.0
2018-Jun-14 20:55N 25°59' W 080°08'0 0.0
2018-Jun-14 20:25N 25°59' W 080°08'0 0.0
2018-Jun-14 19:55N 25°59' W 080°08'0 0.0
2018-Jun-14 19:22N 25°59' W 080°08'0 0.0
2018-Jun-14 18:55N 25°59' W 080°08'0 0.0
2018-Jun-14 17:43N 25°59' W 080°08'0 0.0
2018-Jun-14 17:28N 25°59' W 080°08'0 0.0
2018-Jun-14 16:55N 25°59' W 080°08'0 0.0
2018-Jun-14 16:13N 25°59' W 080°08'0 0.0
2018-Jun-14 15:55N 25°59' W 080°08'0 0.0
2018-Jun-14 15:25N 25°59' W 080°08'0 0.0
2018-Jun-14 14:55N 25°59' W 080°08'0 0.0
2018-Jun-14 14:13N 25°59' W 080°08'0 2.0
2018-Jun-14 13:59N 25°58' W 080°07'3 5.1
2018-Jun-14 13:28N 25°56' W 080°08'0 0.0
2018-Jun-14 12:58N 25°56' W 080°08'0 0.0
2018-Jun-14 12:28N 25°56' W 080°08'0 0.0
2018-Jun-14 11:58N 25°56' W 080°08'0 0.0
2018-Jun-14 11:28N 25°56' W 080°08'0 0.0
2018-Jun-14 10:58N 25°56' W 080°08'0 0.0
2018-Jun-14 10:16N 25°56' W 080°08'0 0.0
2018-Jun-14 09:58N 25°56' W 080°08'0 0.0
2018-Jun-14 09:28N 25°56' W 080°08'0 0.0
2018-Jun-14 08:58N 25°56' W 080°08'0 0.0
2018-Jun-14 08:28N 25°56' W 080°08'0 0.0
2018-Jun-14 07:58N 25°56' W 080°08'0 0.0
2018-Jun-14 07:19N 25°56' W 080°08'0 0.0
2018-Jun-14 06:49N 25°56' W 080°08'0 0.0
2018-Jun-14 06:16N 25°56' W 080°08'0 0.0
2018-Jun-14 05:52N 25°56' W 080°08'0 0.0
2018-Jun-14 05:22N 25°56' W 080°08'0 0.0
2018-Jun-14 04:52N 25°56' W 080°08'0 0.0
2018-Jun-14 04:22N 25°56' W 080°08'0 0.0
2018-Jun-14 03:55N 25°56' W 080°08'0 0.0
2018-Jun-14 03:25N 25°56' W 080°08'0 0.0
2018-Jun-14 02:55N 25°56' W 080°08'0 0.0
2018-Jun-14 02:25N 25°56' W 080°08'0 0.0
2018-Jun-14 01:55N 25°56' W 080°08'0 0.0
2018-Jun-14 01:25N 25°56' W 080°08'0 0.0
2018-Jun-14 00:55N 25°56' W 080°08'0 0.0
2018-Jun-14 00:28N 25°56' W 080°08'0 0.0
2018-Jun-13 23:55N 25°56' W 080°08'0 0.0
2018-Jun-13 23:28N 25°56' W 080°08'0 0.0
2018-Jun-13 22:58N 25°56' W 080°08'0 1.0
2018-Jun-13 22:30N 25°55' W 080°08'1 2.7
2018-Jun-13 22:00N 25°56' W 080°06'5 9.1
2018-Jun-13 21:30N 26°01' W 080°06'5 9.2
2018-Jun-13 20:57N 26°06' W 080°06'3 5.9
2018-Jun-13 20:28N 26°03' W 080°07'2 4.9
2018-Jun-13 19:59N 26°00' W 080°07'2 3.8
2018-Jun-13 19:29N 25°59' W 080°07'3 4.3
2018-Jun-13 18:52N 25°56' W 080°08'1 2.0
2018-Jun-13 18:29N 25°55' W 080°08'1 1.1
2018-Jun-13 17:46N 25°54' W 080°08'0 0.0
2018-Jun-13 17:19N 25°54' W 080°08'0 0.0
2018-Jun-13 16:52N 25°54' W 080°08'0 0.1
2018-Jun-13 16:21N 25°54' W 080°08'1 3.7
2018-Jun-13 15:57N 25°56' W 080°08'0 0.0
2018-Jun-13 15:30N 25°56' W 080°08'0 0.0
2018-Jun-13 15:00N 25°56' W 080°08'3 5.4
2018-Jun-13 14:30N 25°59' W 080°07'0 0.6
2018-Jun-13 13:47N 25°59' W 080°08'0 0.0
2018-Jun-13 13:29N 25°59' W 080°08'0 0.0
2018-Jun-13 12:59N 25°59' W 080°08'0 0.0
2018-Jun-13 12:29N 25°59' W 080°08'0 0.0
2018-Jun-13 11:59N 25°59' W 080°08'0 0.0
2018-Jun-13 11:29N 25°59' W 080°08'0 0.0
2018-Jun-13 10:50N 25°59' W 080°08'0 0.0
2018-Jun-13 10:20N 25°59' W 080°08'0 0.0
2018-Jun-13 09:53N 25°59' W 080°08'0 0.0
2018-Jun-13 09:23N 25°59' W 080°08'0 0.0
2018-Jun-13 08:53N 25°59' W 080°08'0 0.0
2018-Jun-13 08:23N 25°59' W 080°08'0 0.0
2018-Jun-13 07:53N 25°59' W 080°08'0 0.0
2018-Jun-13 07:20N 25°59' W 080°08'0 0.0
2018-Jun-13 06:56N 25°59' W 080°08'0 0.0
2018-Jun-13 06:26N 25°59' W 080°08'0 0.0
2018-Jun-13 05:56N 25°59' W 080°08'0 0.0
2018-Jun-13 05:23N 25°59' W 080°08'0 0.0
2018-Jun-13 04:56N 25°59' W 080°08'0 0.0
2018-Jun-13 04:26N 25°59' W 080°08'0 0.0
2018-Jun-13 03:59N 25°59' W 080°08'0 0.0
2018-Jun-13 03:29N 25°59' W 080°08'0 0.0
2018-Jun-13 02:59N 25°59' W 080°08'0 0.0
2018-Jun-13 02:26N 25°59' W 080°08'0 0.0
2018-Jun-13 01:59N 25°59' W 080°08'0 0.0
2018-Jun-13 01:29N 25°59' W 080°08'0 0.0
2018-Jun-13 00:59N 25°59' W 080°08'0 0.0
2018-Jun-13 00:29N 25°59' W 080°08'0 0.0
2018-Jun-12 23:59N 25°59' W 080°08'0 0.0
2018-Jun-12 23:29N 25°59' W 080°08'0 0.0
2018-Jun-12 22:59N 25°59' W 080°08'0 0.0
2018-Jun-12 22:29N 25°59' W 080°08'0 0.0
2018-Jun-12 21:59N 25°59' W 080°08'0 0.0
2018-Jun-12 21:20N 25°59' W 080°08'0 0.0
2018-Jun-12 20:50N 25°59' W 080°08'0 0.0
2018-Jun-12 20:17N 25°59' W 080°08'0 0.0
2018-Jun-12 19:53N 25°59' W 080°08'0 0.0
2018-Jun-12 19:23N 25°59' W 080°08'0 0.0
2018-Jun-12 18:53N 25°59' W 080°08'0 0.0
2018-Jun-12 18:23N 25°59' W 080°08'0 0.0
2018-Jun-12 17:53N 25°59' W 080°08'0 0.0
2018-Jun-12 17:23N 25°59' W 080°08'0 0.0
2018-Jun-12 16:56N 25°59' W 080°08'0 0.0
2018-Jun-12 16:26N 25°59' W 080°08'0 0.0
2018-Jun-12 15:56N 25°59' W 080°08'0 0.0
2018-Jun-12 15:26N 25°59' W 080°08'0 0.0
2018-Jun-12 14:56N 25°59' W 080°08'0 0.0
2018-Jun-12 14:29N 25°59' W 080°08'0 0.0
2018-Jun-12 13:59N 25°59' W 080°08'0 0.0
2018-Jun-12 13:26N 25°59' W 080°08'0 0.0
2018-Jun-12 12:59N 25°59' W 080°08'0 0.0
2018-Jun-12 12:29N 25°59' W 080°08'0 0.0
2018-Jun-12 11:59N 25°59' W 080°08'0 0.0
2018-Jun-12 11:29N 25°59' W 080°08'0 0.0
2018-Jun-12 10:56N 25°59' W 080°08'0 0.0
2018-Jun-12 10:29N 25°59' W 080°08'0 0.0
2018-Jun-12 09:56N 25°59' W 080°08'0 0.0
2018-Jun-12 09:26N 25°59' W 080°08'0 0.0
2018-Jun-12 08:56N 25°59' W 080°08'0 0.0
2018-Jun-12 08:26N 25°59' W 080°08'0 0.0
2018-Jun-12 07:56N 25°59' W 080°08'0 0.0
2018-Jun-12 07:26N 25°59' W 080°08'0 0.0
2018-Jun-12 06:59N 25°59' W 080°08'0 0.0
2018-Jun-12 06:29N 25°59' W 080°08'0 0.0
2018-Jun-12 05:59N 25°59' W 080°08'0 0.0
2018-Jun-12 05:29N 25°59' W 080°08'0 0.0
2018-Jun-12 04:59N 25°59' W 080°08'0 0.0
2018-Jun-12 04:29N 25°59' W 080°08'0 0.0
2018-Jun-12 03:56N 25°59' W 080°08'0 0.0
2018-Jun-12 03:29N 25°59' W 080°08'0 0.0
2018-Jun-12 02:59N 25°59' W 080°08'0 0.0
2018-Jun-12 02:29N 25°59' W 080°08'1 1.2
2018-Jun-12 01:59N 25°58' W 080°07'3 7.1
2018-Jun-12 01:29N 25°55' W 080°08'4 7.6
2018-Jun-12 00:59N 25°52' W 080°10'4 7.9
2018-Jun-12 00:29N 25°48' W 080°11'2 1.0
2018-Jun-11 22:48N 25°47' W 080°12'1 3.1
2018-Jun-11 22:29N 25°46' W 080°11'1 2.6
2018-Jun-11 21:59N 25°47' W 080°10'2 3.2
2018-Jun-11 21:30N 25°46' W 080°11'2 0.8
2018-Jun-11 18:54N 25°44' W 080°12'2 5.4
2018-Jun-11 18:30N 25°46' W 080°11'2 4.9
2018-Jun-11 18:00N 25°46' W 080°08'1 2.3
2018-Jun-11 17:28N 25°46' W 080°10'2 3.7
2018-Jun-11 16:58N 25°47' W 080°11'3 6.1
2018-Jun-11 16:25N 25°51' W 080°10'2 4.5
2018-Jun-11 15:56N 25°53' W 080°09'3 5.1
2018-Jun-11 15:26N 25°55' W 080°08'1 2.4
2018-Jun-11 14:57N 25°56' W 080°08'3 4.2
2018-Jun-11 14:20N 25°59' W 080°08'0 0.0
2018-Jun-11 13:53N 25°59' W 080°08'0 0.0
2018-Jun-11 13:23N 25°59' W 080°08'0 0.0
2018-Jun-11 12:53N 25°59' W 080°08'0 0.0
2018-Jun-11 12:23N 25°59' W 080°08'0 0.0
2018-Jun-11 11:53N 25°59' W 080°08'0 0.0
2018-Jun-11 11:20N 25°59' W 080°08'0 0.0
2018-Jun-11 10:56N 25°59' W 080°08'0 0.0
2018-Jun-11 10:20N 25°59' W 080°08'0 0.0
2018-Jun-11 09:56N 25°59' W 080°08'0 0.0
2018-Jun-11 09:26N 25°59' W 080°08'0 0.0
2018-Jun-11 08:56N 25°59' W 080°08'0 0.0
2018-Jun-11 08:26N 25°59' W 080°08'0 0.0
2018-Jun-11 07:56N 25°59' W 080°08'0 0.0
2018-Jun-11 07:29N 25°59' W 080°08'0 0.0
2018-Jun-11 06:59N 25°59' W 080°08'0 0.0
2018-Jun-11 06:29N 25°59' W 080°08'0 0.0
2018-Jun-11 05:59N 25°59' W 080°08'0 0.0
2018-Jun-11 05:29N 25°59' W 080°08'0 0.0
2018-Jun-11 04:56N 25°59' W 080°08'0 0.0
2018-Jun-11 04:29N 25°59' W 080°08'0 0.0
2018-Jun-11 03:44N 25°59' W 080°08'0 0.0
2018-Jun-11 03:29N 25°59' W 080°08'0 0.0
2018-Jun-11 02:50N 25°59' W 080°08'0 0.0
2018-Jun-11 02:29N 25°59' W 080°08'0 0.0
2018-Jun-11 01:47N 25°59' W 080°08'0 0.0
2018-Jun-11 01:17N 25°59' W 080°08'0 0.0
2018-Jun-11 00:50N 25°59' W 080°08'0 1.0
2018-Jun-11 00:30N 25°59' W 080°08'3 3.9
2018-Jun-10 23:49N 25°56' W 080°08'0 0.3
2018-Jun-10 23:16N 25°56' W 080°08'2 7.3
2018-Jun-10 22:57N 25°53' W 080°08'4 6.5
2018-Jun-10 22:23N 25°50' W 080°10'3 7.8
2018-Jun-10 22:00N 25°47' W 080°11'1 2.6
2018-Jun-10 21:30N 25°46' W 080°11'3 0.7
2018-Jun-10 16:56N 25°43' W 080°11'3 7.6
2018-Jun-10 16:30N 25°46' W 080°11'1 2.9
2018-Jun-10 16:00N 25°47' W 080°11'3 4.9
2018-Jun-10 15:25N 25°50' W 080°10'2 5.1
2018-Jun-10 14:58N 25°52' W 080°09'4 2.7
2018-Jun-10 13:34N 25°56' W 080°08'0 0.0
2018-Jun-10 13:25N 25°56' W 080°08'3 3.1
2018-Jun-10 12:32N 25°59' W 080°08'0 0.0
2018-Jun-10 12:20N 25°59' W 080°08'0 0.0
2018-Jun-10 11:50N 25°59' W 080°08'0 0.0
2018-Jun-10 11:23N 25°59' W 080°08'0 0.0
2018-Jun-10 10:53N 25°59' W 080°08'0 0.0
2018-Jun-10 10:23N 25°59' W 080°08'0 0.0
2018-Jun-10 09:50N 25°59' W 080°08'0 0.0
2018-Jun-10 09:26N 25°59' W 080°08'0 0.0
2018-Jun-10 08:50N 25°59' W 080°08'0 0.0
2018-Jun-10 08:26N 25°59' W 080°08'0 0.0
2018-Jun-10 07:56N 25°59' W 080°08'0 0.0
2018-Jun-10 07:26N 25°59' W 080°08'0 0.0
2018-Jun-10 06:56N 25°59' W 080°08'0 0.0
2018-Jun-10 06:26N 25°59' W 080°08'0 0.0
2018-Jun-10 05:56N 25°59' W 080°08'0 0.0
2018-Jun-10 05:26N 25°59' W 080°08'0 0.0
2018-Jun-10 04:56N 25°59' W 080°08'0 0.0
2018-Jun-10 04:26N 25°59' W 080°08'0 0.0
2018-Jun-10 03:56N 25°59' W 080°08'0 0.0
2018-Jun-10 03:29N 25°59' W 080°08'0 0.0
2018-Jun-10 02:56N 25°59' W 080°08'0 0.0
2018-Jun-10 02:26N 25°59' W 080°08'0 0.0
2018-Jun-10 01:44N 25°59' W 080°08'0 0.0
2018-Jun-10 01:29N 25°59' W 080°08'0 0.0
2018-Jun-10 00:47N 25°59' W 080°08'0 0.0
2018-Jun-10 00:29N 25°59' W 080°08'0 0.0
2018-Jun-09 23:50N 25°59' W 080°08'0 0.0
2018-Jun-09 23:20N 25°59' W 080°08'1 1.4
2018-Jun-09 22:50N 25°59' W 080°08'  
Track history (hours):
 
Tides and Currents Weather Stations Pressure Air Temp Water Temp Dewpoint Dewpoint Depression Visibility Wind Speed Wind Dir Waves Ship Positions

Soleado

Last reported at 2018-Jun-19 22:46 UTC. Time now 2018-Jun-25 19:31 UTC.
Position N 25°54' W 079°57'.

Length 16 m.

Type: Pleasure craft. MMSI: 339377000.

Date/timePositionNaut miles runAvg speedWind from/ knotsBaromVisibWave heightAir tempDewpointWater temp
2018-Jun-19 22:46N 25°54' W 079°57'411.9
2018-Jun-19 22:28N 25°54' W 080°01'611.3
2018-Jun-19 21:58N 25°54' W 080°08'3 6.5
2018-Jun-19 21:28N 25°57' W 080°08'1 2.6
2018-Jun-19 20:57N 25°59' W 080°08'0 0.0
2018-Jun-19 20:27N 25°59' W 080°08'0 0.0
2018-Jun-19 19:57N 25°59' W 080°08'0 0.0
2018-Jun-19 19:27N 25°59' W 080°08'0 0.0
2018-Jun-19 18:57N 25°59' W 080°08'0 0.0
2018-Jun-19 18:30N 25°59' W 080°08'0 0.0
2018-Jun-19 18:00N 25°59' W 080°08'0 0.0
2018-Jun-19 17:30N 25°59' W 080°08'0 0.0
2018-Jun-19 17:00N 25°59' W 080°08'0 0.0
2018-Jun-19 16:27N 25°59' W 080°08'0 0.0
2018-Jun-19 16:00N 25°59' W 080°08'0 0.0
2018-Jun-19 15:30N 25°59' W 080°08'0 0.0
2018-Jun-19 15:00N 25°59' W 080°08'0 0.0
2018-Jun-19 14:21N 25°59' W 080°08'0 0.0
2018-Jun-19 13:54N 25°59' W 080°08'0 0.0
2018-Jun-19 13:28N 25°59' W 080°08'0 0.0
2018-Jun-19 12:57N 25°59' W 080°08'0 0.0
2018-Jun-19 12:28N 25°59' W 080°08'0 0.0
2018-Jun-19 11:58N 25°59' W 080°08'0 0.0
2018-Jun-19 11:27N 25°59' W 080°08'0 0.0
2018-Jun-19 11:01N 25°59' W 080°08'0 0.0
2018-Jun-19 10:30N 25°59' W 080°08'0 0.0
2018-Jun-19 10:01N 25°59' W 080°08'0 0.0
2018-Jun-19 09:27N 25°59' W 080°08'0 0.0
2018-Jun-19 09:01N 25°59' W 080°08'0 0.0
2018-Jun-19 08:31N 25°59' W 080°08'0 0.0
2018-Jun-19 08:00N 25°59' W 080°08'0 0.0
2018-Jun-19 07:31N 25°59' W 080°08'0 0.0
2018-Jun-19 07:01N 25°59' W 080°08'0 0.0
2018-Jun-19 06:30N 25°59' W 080°08'0 0.0
2018-Jun-19 05:49N 25°59' W 080°08'0 0.0
2018-Jun-19 05:31N 25°59' W 080°08'0 0.0
2018-Jun-19 05:00N 25°59' W 080°08'0 0.0
2018-Jun-19 04:30N 25°59' W 080°08'0 0.0
2018-Jun-19 03:52N 25°59' W 080°08'0 0.0
2018-Jun-19 03:21N 25°59' W 080°08'0 0.0
2018-Jun-19 02:55N 25°59' W 080°08'0 0.0
2018-Jun-19 02:24N 25°59' W 080°08'0 0.0
2018-Jun-19 01:54N 25°59' W 080°08'0 0.0
2018-Jun-19 01:24N 25°59' W 080°08'0 0.0
2018-Jun-19 00:54N 25°59' W 080°08'0 0.0
2018-Jun-19 00:24N 25°59' W 080°08'0 0.0
2018-Jun-18 23:58N 25°59' W 080°08'0 0.0
2018-Jun-18 23:28N 25°59' W 080°08'0 0.0
2018-Jun-18 22:57N 25°59' W 080°08'0 0.0
2018-Jun-18 22:27N 25°59' W 080°08'0 0.0
2018-Jun-18 21:57N 25°59' W 080°08'0 0.0
2018-Jun-18 21:28N 25°59' W 080°08'0 0.4
2018-Jun-18 20:54N 25°59' W 080°08'2 5.6
2018-Jun-18 20:31N 26°01' W 080°07'3 5.0
2018-Jun-18 20:00N 26°03' W 080°07'1 2.5
2018-Jun-18 19:28N 26°05' W 080°07'3 6.0
2018-Jun-18 18:58N 26°02' W 080°06'612.3
2018-Jun-18 18:28N 25°56' W 080°06'810.5
2018-Jun-18 17:45N 25°48' W 080°06'2 9.9
2018-Jun-18 17:31N 25°46' W 080°07'3 5.3
2018-Jun-18 17:01N 25°48' W 080°09'0 0.7
2018-Jun-18 16:28N 25°48' W 080°09'0 0.0
2018-Jun-18 15:58N 25°48' W 080°09'0 0.0
2018-Jun-18 15:19N 25°48' W 080°09'0 0.0
2018-Jun-18 14:58N 25°48' W 080°09'0 0.0
2018-Jun-18 14:28N 25°48' W 080°09'0 0.0
2018-Jun-18 13:49N 25°48' W 080°09'0 0.0
2018-Jun-18 13:19N 25°48' W 080°09'0 0.0
2018-Jun-18 12:49N 25°48' W 080°09'0 0.0
2018-Jun-18 12:25N 25°48' W 080°09'0 0.0
2018-Jun-18 11:52N 25°48' W 080°09'0 0.0
2018-Jun-18 11:22N 25°48' W 080°09'0 0.0
2018-Jun-18 10:58N 25°48' W 080°09'0 0.0
2018-Jun-18 10:28N 25°48' W 080°09'0 0.0
2018-Jun-18 09:58N 25°48' W 080°09'0 0.0
2018-Jun-18 09:28N 25°48' W 080°09'0 0.0
2018-Jun-18 08:58N 25°48' W 080°09'0 0.0
2018-Jun-18 08:28N 25°48' W 080°09'0 0.0
2018-Jun-18 07:58N 25°48' W 080°09'0 0.0
2018-Jun-18 07:28N 25°48' W 080°09'0 0.0
2018-Jun-18 06:55N 25°48' W 080°09'0 0.0
2018-Jun-18 06:28N 25°48' W 080°09'0 0.0
2018-Jun-18 05:28N 25°48' W 080°09'0 0.0
2018-Jun-18 04:58N 25°48' W 080°09'0 0.0
2018-Jun-18 04:28N 25°48' W 080°09'0 0.0
2018-Jun-18 03:58N 25°48' W 080°09'0 0.0
2018-Jun-18 03:28N 25°48' W 080°09'0 0.0
2018-Jun-18 02:58N 25°48' W 080°09'0 0.0
2018-Jun-18 02:28N 25°48' W 080°09'0 0.0
2018-Jun-18 01:58N 25°48' W 080°09'0 0.0
2018-Jun-18 01:25N 25°48' W 080°09'0 0.0
2018-Jun-18 00:58N 25°48' W 080°09'0 0.0
2018-Jun-18 00:28N 25°48' W 080°09'1 2.7
2018-Jun-18 00:00N 25°47' W 080°09'2 4.8
2018-Jun-17 23:29N 25°45' W 080°11'2 0.3
2018-Jun-17 18:51N 25°44' W 080°11'3 8.1
2018-Jun-17 18:30N 25°46' W 080°11'2 3.8
2018-Jun-17 18:00N 25°48' W 080°09'0 0.7
2018-Jun-17 17:27N 25°48' W 080°09'0 0.0
2018-Jun-17 16:57N 25°48' W 080°09'0 0.0
2018-Jun-17 16:27N 25°48' W 080°09'0 0.0
2018-Jun-17 16:00N 25°48' W 080°09'0 0.0
2018-Jun-17 15:27N 25°48' W 080°09'0 0.0
2018-Jun-17 15:00N 25°48' W 080°09'0 0.0
2018-Jun-17 14:27N 25°48' W 080°09'0 0.0
2018-Jun-17 14:00N 25°48' W 080°09'0 0.0
2018-Jun-17 13:30N 25°48' W 080°09'0 0.0
2018-Jun-17 13:00N 25°48' W 080°09'0 0.0
2018-Jun-17 12:27N 25°48' W 080°09'0 0.0
2018-Jun-17 12:00N 25°48' W 080°09'0 0.0
2018-Jun-17 11:21N 25°48' W 080°09'0 0.0
2018-Jun-17 11:00N 25°48' W 080°09'0 0.0
2018-Jun-17 10:30N 25°48' W 080°09'0 0.0
2018-Jun-17 10:00N 25°48' W 080°09'0 0.0
2018-Jun-17 09:21N 25°48' W 080°09'0 0.0
2018-Jun-17 09:00N 25°48' W 080°09'0 0.0
2018-Jun-17 08:21N 25°48' W 080°09'0 0.0
2018-Jun-17 07:57N 25°48' W 080°09'0 0.0
2018-Jun-17 07:24N 25°48' W 080°09'0 0.0
2018-Jun-17 06:54N 25°48' W 080°09'0 0.0
2018-Jun-17 06:30N 25°48' W 080°09'0 0.0
2018-Jun-17 05:57N 25°48' W 080°09'0 0.0
2018-Jun-17 05:24N 25°48' W 080°09'0 0.0
2018-Jun-17 04:51N 25°48' W 080°09'0 0.0
2018-Jun-17 04:27N 25°48' W 080°09'0 0.0
2018-Jun-17 03:57N 25°48' W 080°09'0 0.0
2018-Jun-17 03:27N 25°48' W 080°09'0 0.0
2018-Jun-17 03:00N 25°48' W 080°09'0 0.0
2018-Jun-17 02:27N 25°48' W 080°09'0 0.0
2018-Jun-17 02:00N 25°48' W 080°09'0 0.0
2018-Jun-17 01:30N 25°48' W 080°09'0 0.0
2018-Jun-17 01:00N 25°48' W 080°09'0 0.0
2018-Jun-17 00:30N 25°48' W 080°09'0 0.0
2018-Jun-16 23:56N 25°48' W 080°09'2 3.5
2018-Jun-16 23:30N 25°46' W 080°09'3 0.6
2018-Jun-16 18:22N 25°44' W 080°11'3 7.2
2018-Jun-16 18:01N 25°46' W 080°11'2 3.7
2018-Jun-16 17:29N 25°48' W 080°09'0 0.7
2018-Jun-16 16:54N 25°48' W 080°09'0 0.0
2018-Jun-16 16:24N 25°48' W 080°09'0 0.0
2018-Jun-16 15:57N 25°48' W 080°09'0 0.0
2018-Jun-16 15:30N 25°48' W 080°09'0 0.0
2018-Jun-16 15:00N 25°48' W 080°09'0 0.0
2018-Jun-16 14:30N 25°48' W 080°09'0 0.0
2018-Jun-16 14:00N 25°48' W 080°09'0 0.0
2018-Jun-16 13:30N 25°48' W 080°09'0 0.0
2018-Jun-16 12:57N 25°48' W 080°09'0 0.0
2018-Jun-16 12:30N 25°48' W 080°09'0 0.0
2018-Jun-16 12:00N 25°48' W 080°09'0 0.0
2018-Jun-16 11:30N 25°48' W 080°09'0 0.0
2018-Jun-16 11:00N 25°48' W 080°09'0 0.0
2018-Jun-16 10:30N 25°48' W 080°09'0 0.0
2018-Jun-16 10:00N 25°48' W 080°09'0 0.0
2018-Jun-16 09:30N 25°48' W 080°09'0 0.0
2018-Jun-16 09:00N 25°48' W 080°09'0 0.0
2018-Jun-16 08:30N 25°48' W 080°09'0 0.0
2018-Jun-16 08:00N 25°48' W 080°09'0 0.0
2018-Jun-16 07:30N 25°48' W 080°09'0 0.0
2018-Jun-16 07:00N 25°48' W 080°09'0 0.0
2018-Jun-16 06:30N 25°48' W 080°09'0 0.0
2018-Jun-16 06:00N 25°48' W 080°09'0 0.0
2018-Jun-16 05:27N 25°48' W 080°09'0 0.0
2018-Jun-16 05:00N 25°48' W 080°09'0 0.0
2018-Jun-16 04:24N 25°48' W 080°09'0 0.0
2018-Jun-16 03:54N 25°48' W 080°09'0 0.0
2018-Jun-16 03:30N 25°48' W 080°09'0 0.0
2018-Jun-16 03:00N 25°48' W 080°09'0 0.0
2018-Jun-16 02:24N 25°48' W 080°09'0 0.0
2018-Jun-16 01:54N 25°48' W 080°09'0 0.0
2018-Jun-16 01:24N 25°48' W 080°09'0 0.0
2018-Jun-16 01:00N 25°48' W 080°09'0 0.0
2018-Jun-16 00:27N 25°48' W 080°09'0 0.0
2018-Jun-15 23:57N 25°48' W 080°09'0 0.0
2018-Jun-15 23:30N 25°48' W 080°09'0 0.0
2018-Jun-15 22:57N 25°48' W 080°09'0 0.0
2018-Jun-15 22:30N 25°48' W 080°09'0 0.0
2018-Jun-15 22:00N 25°48' W 080°09'0 0.0
2018-Jun-15 21:30N 25°48' W 080°09'0 0.0
2018-Jun-15 20:57N 25°48' W 080°09'0 0.0
2018-Jun-15 20:18N 25°48' W 080°09'0 0.0
2018-Jun-15 20:00N 25°48' W 080°09'1 1.0
2018-Jun-15 19:28N 25°47' W 080°09'2 3.8
2018-Jun-15 19:00N 25°46' W 080°08'5 7.1
2018-Jun-15 18:21N 25°50' W 080°06'3 9.5
2018-Jun-15 18:00N 25°53' W 080°07'3 6.2
2018-Jun-15 17:30N 25°56' W 080°08'2 3.0
2018-Jun-15 16:43N 25°59' W 080°08'0 0.0
2018-Jun-15 16:19N 25°59' W 080°08'0 0.0
2018-Jun-15 15:49N 25°59' W 080°08'0 0.0
2018-Jun-15 15:19N 25°59' W 080°08'0 0.0
2018-Jun-15 14:49N 25°59' W 080°08'0 0.0
2018-Jun-15 14:19N 25°59' W 080°08'0 0.0
2018-Jun-15 13:49N 25°59' W 080°08'0 0.0
2018-Jun-15 13:19N 25°59' W 080°08'0 0.0
2018-Jun-15 12:49N 25°59' W 080°08'0 0.0
2018-Jun-15 12:19N 25°59' W 080°08'0 0.0
2018-Jun-15 11:49N 25°59' W 080°08'0 0.0
2018-Jun-15 11:19N 25°59' W 080°08'0 0.0
2018-Jun-15 10:49N 25°59' W 080°08'0 0.0
2018-Jun-15 10:07N 25°59' W 080°08'0 0.0
2018-Jun-15 09:55N 25°59' W 080°08'0 0.0
2018-Jun-15 09:07N 25°59' W 080°08'0 0.0
2018-Jun-15 08:55N 25°59' W 080°08'0 0.0
2018-Jun-15 08:25N 25°59' W 080°08'0 0.0
2018-Jun-15 07:43N 25°59' W 080°08'0 0.0
2018-Jun-15 07:25N 25°59' W 080°08'0 0.0
2018-Jun-15 06:55N 25°59' W 080°08'0 0.0
2018-Jun-15 06:25N 25°59' W 080°08'0 0.0
2018-Jun-15 05:55N 25°59' W 080°08'0 0.0
2018-Jun-15 04:31N 25°59' W 080°08'0 0.0
2018-Jun-15 04:25N 25°59' W 080°08'0 0.0
2018-Jun-15 03:55N 25°59' W 080°08'0 0.0
2018-Jun-15 03:13N 25°59' W 080°08'0 0.0
2018-Jun-15 02:43N 25°59' W 080°08'0 0.0
2018-Jun-15 02:13N 25°59' W 080°08'0 0.0
2018-Jun-15 01:49N 25°59' W 080°08'0 0.0
2018-Jun-15 01:19N 25°59' W 080°08'0 0.0
2018-Jun-15 00:49N 25°59' W 080°08'0 0.0
2018-Jun-15 00:19N 25°59' W 080°08'0 0.0
2018-Jun-14 23:49N 25°59' W 080°08'0 0.0
2018-Jun-14 23:22N 25°59' W 080°08'0 0.0
2018-Jun-14 22:49N 25°59' W 080°08'0 0.0
2018-Jun-14 22:22N 25°59' W 080°08'0 0.0
2018-Jun-14 21:52N 25°59' W 080°08'0 0.0
2018-Jun-14 21:25N 25°59' W 080°08'0 0.0
2018-Jun-14 20:55N 25°59' W 080°08'0 0.0
2018-Jun-14 20:25N 25°59' W 080°08'0 0.0
2018-Jun-14 19:55N 25°59' W 080°08'0 0.0
2018-Jun-14 19:22N 25°59' W 080°08'0 0.0
2018-Jun-14 18:55N 25°59' W 080°08'0 0.0
2018-Jun-14 17:43N 25°59' W 080°08'0 0.0
2018-Jun-14 17:28N 25°59' W 080°08'0 0.0
2018-Jun-14 16:55N 25°59' W 080°08'0 0.0
2018-Jun-14 16:13N 25°59' W 080°08'0 0.0
2018-Jun-14 15:55N 25°59' W 080°08'0 0.0
2018-Jun-14 15:25N 25°59' W 080°08'0 0.0
2018-Jun-14 14:55N 25°59' W 080°08'0 0.0
2018-Jun-14 14:13N 25°59' W 080°08'0 2.0
2018-Jun-14 13:59N 25°58' W 080°07'3 5.1
2018-Jun-14 13:28N 25°56' W 080°08'0 0.0
2018-Jun-14 12:58N 25°56' W 080°08'0 0.0
2018-Jun-14 12:28N 25°56' W 080°08'0 0.0
2018-Jun-14 11:58N 25°56' W 080°08'0 0.0
2018-Jun-14 11:28N 25°56' W 080°08'0 0.0
2018-Jun-14 10:58N 25°56' W 080°08'0 0.0
2018-Jun-14 10:16N 25°56' W 080°08'0 0.0
2018-Jun-14 09:58N 25°56' W 080°08'0 0.0
2018-Jun-14 09:28N 25°56' W 080°08'0 0.0
2018-Jun-14 08:58N 25°56' W 080°08'0 0.0
2018-Jun-14 08:28N 25°56' W 080°08'0 0.0
2018-Jun-14 07:58N 25°56' W 080°08'0 0.0
2018-Jun-14 07:19N 25°56' W 080°08'0 0.0
2018-Jun-14 06:49N 25°56' W 080°08'0 0.0
2018-Jun-14 06:16N 25°56' W 080°08'0 0.0
2018-Jun-14 05:52N 25°56' W 080°08'0 0.0
2018-Jun-14 05:22N 25°56' W 080°08'0 0.0
2018-Jun-14 04:52N 25°56' W 080°08'0 0.0
2018-Jun-14 04:22N 25°56' W 080°08'0 0.0
2018-Jun-14 03:55N 25°56' W 080°08'0 0.0
2018-Jun-14 03:25N 25°56' W 080°08'0 0.0
2018-Jun-14 02:55N 25°56' W 080°08'0 0.0
2018-Jun-14 02:25N 25°56' W 080°08'0 0.0
2018-Jun-14 01:55N 25°56' W 080°08'0 0.0
2018-Jun-14 01:25N 25°56' W 080°08'0 0.0
2018-Jun-14 00:55N 25°56' W 080°08'0 0.0
2018-Jun-14 00:28N 25°56' W 080°08'0 0.0
2018-Jun-13 23:55N 25°56' W 080°08'0 0.0
2018-Jun-13 23:28N 25°56' W 080°08'0 0.0
2018-Jun-13 22:58N 25°56' W 080°08'0 1.0
2018-Jun-13 22:30N 25°55' W 080°08'1 2.7
2018-Jun-13 22:00N 25°56' W 080°06'5 9.1
2018-Jun-13 21:30N 26°01' W 080°06'5 9.2
2018-Jun-13 20:57N 26°06' W 080°06'3 5.9
2018-Jun-13 20:28N 26°03' W 080°07'2 4.9
2018-Jun-13 19:59N 26°00' W 080°07'2 3.8
2018-Jun-13 19:29N 25°59' W 080°07'3 4.3
2018-Jun-13 18:52N 25°56' W 080°08'1 2.0
2018-Jun-13 18:29N 25°55' W 080°08'1 1.1
2018-Jun-13 17:46N 25°54' W 080°08'0 0.0
2018-Jun-13 17:19N 25°54' W 080°08'0 0.0
2018-Jun-13 16:52N 25°54' W 080°08'0 0.1
2018-Jun-13 16:21N 25°54' W 080°08'1 3.7
2018-Jun-13 15:57N 25°56' W 080°08'0 0.0
2018-Jun-13 15:30N 25°56' W 080°08'0 0.0
2018-Jun-13 15:00N 25°56' W 080°08'3 5.4
2018-Jun-13 14:30N 25°59' W 080°07'0 0.6
2018-Jun-13 13:47N 25°59' W 080°08'0 0.0
2018-Jun-13 13:29N 25°59' W 080°08'0 0.0
2018-Jun-13 12:59N 25°59' W 080°08'0 0.0
2018-Jun-13 12:29N 25°59' W 080°08'0 0.0
2018-Jun-13 11:59N 25°59' W 080°08'0 0.0
2018-Jun-13 11:29N 25°59' W 080°08'0 0.0
2018-Jun-13 10:50N 25°59' W 080°08'0 0.0
2018-Jun-13 10:20N 25°59' W 080°08'0 0.0
2018-Jun-13 09:53N 25°59' W 080°08'0 0.0
2018-Jun-13 09:23N 25°59' W 080°08'0 0.0
2018-Jun-13 08:53N 25°59' W 080°08'0 0.0
2018-Jun-13 08:23N 25°59' W 080°08'0 0.0
2018-Jun-13 07:53N 25°59' W 080°08'0 0.0
2018-Jun-13 07:20N 25°59' W 080°08'0 0.0
2018-Jun-13 06:56N 25°59' W 080°08'0 0.0
2018-Jun-13 06:26N 25°59' W 080°08'0 0.0
2018-Jun-13 05:56N 25°59' W 080°08'0 0.0
2018-Jun-13 05:23N 25°59' W 080°08'0 0.0
2018-Jun-13 04:56N 25°59' W 080°08'0 0.0
2018-Jun-13 04:26N 25°59' W 080°08'0 0.0
2018-Jun-13 03:59N 25°59' W 080°08'0 0.0
2018-Jun-13 03:29N 25°59' W 080°08'0 0.0
2018-Jun-13 02:59N 25°59' W 080°08'0 0.0
2018-Jun-13 02:26N 25°59' W 080°08'0 0.0
2018-Jun-13 01:59N 25°59' W 080°08'0 0.0
2018-Jun-13 01:29N 25°59' W 080°08'0 0.0
2018-Jun-13 00:59N 25°59' W 080°08'0 0.0
2018-Jun-13 00:29N 25°59' W 080°08'0 0.0
2018-Jun-12 23:59N 25°59' W 080°08'0 0.0
2018-Jun-12 23:29N 25°59' W 080°08'0 0.0
2018-Jun-12 22:59N 25°59' W 080°08'0 0.0
2018-Jun-12 22:29N 25°59' W 080°08'0 0.0
2018-Jun-12 21:59N 25°59' W 080°08'0 0.0
2018-Jun-12 21:20N 25°59' W 080°08'0 0.0
2018-Jun-12 20:50N 25°59' W 080°08'0 0.0
2018-Jun-12 20:17N 25°59' W 080°08'0 0.0
2018-Jun-12 19:53N 25°59' W 080°08'0 0.0
2018-Jun-12 19:23N 25°59' W 080°08'0 0.0
2018-Jun-12 18:53N 25°59' W 080°08'0 0.0
2018-Jun-12 18:23N 25°59' W 080°08'0 0.0
2018-Jun-12 17:53N 25°59' W 080°08'0 0.0
2018-Jun-12 17:23N 25°59' W 080°08'0 0.0
2018-Jun-12 16:56N 25°59' W 080°08'0 0.0
2018-Jun-12 16:26N 25°59' W 080°08'0 0.0
2018-Jun-12 15:56N 25°59' W 080°08'0 0.0
2018-Jun-12 15:26N 25°59' W 080°08'0 0.0
2018-Jun-12 14:56N 25°59' W 080°08'0 0.0
2018-Jun-12 14:29N 25°59' W 080°08'0 0.0
2018-Jun-12 13:59N 25°59' W 080°08'0 0.0
2018-Jun-12 13:26N 25°59' W 080°08'0 0.0
2018-Jun-12 12:59N 25°59' W 080°08'0 0.0
2018-Jun-12 12:29N 25°59' W 080°08'0 0.0
2018-Jun-12 11:59N 25°59' W 080°08'0 0.0
2018-Jun-12 11:29N 25°59' W 080°08'0 0.0
2018-Jun-12 10:56N 25°59' W 080°08'0 0.0
2018-Jun-12 10:29N 25°59' W 080°08'0 0.0
2018-Jun-12 09:56N 25°59' W 080°08'0 0.0
2018-Jun-12 09:26N 25°59' W 080°08'0 0.0
2018-Jun-12 08:56N 25°59' W 080°08'0 0.0
2018-Jun-12 08:26N 25°59' W 080°08'0 0.0
2018-Jun-12 07:56N 25°59' W 080°08'0 0.0
2018-Jun-12 07:26N 25°59' W 080°08'0 0.0
2018-Jun-12 06:59N 25°59' W 080°08'0 0.0
2018-Jun-12 06:29N 25°59' W 080°08'0 0.0
2018-Jun-12 05:59N 25°59' W 080°08'0 0.0
2018-Jun-12 05:29N 25°59' W 080°08'0 0.0
2018-Jun-12 04:59N 25°59' W 080°08'0 0.0
2018-Jun-12 04:29N 25°59' W 080°08'0 0.0
2018-Jun-12 03:56N 25°59' W 080°08'0 0.0
2018-Jun-12 03:29N 25°59' W 080°08'0 0.0
2018-Jun-12 02:59N 25°59' W 080°08'0 0.0
2018-Jun-12 02:29N 25°59' W 080°08'1 1.2
2018-Jun-12 01:59N 25°58' W 080°07'3 7.1
2018-Jun-12 01:29N 25°55' W 080°08'4 7.6
2018-Jun-12 00:59N 25°52' W 080°10'4 7.9
2018-Jun-12 00:29N 25°48' W 080°11'2 1.0
2018-Jun-11 22:48N 25°47' W 080°12'1 3.1
2018-Jun-11 22:29N 25°46' W 080°11'1 2.6
2018-Jun-11 21:59N 25°47' W 080°10'2 3.2
2018-Jun-11 21:30N 25°46' W 080°11'2 0.8
2018-Jun-11 18:54N 25°44' W 080°12'2 5.4
2018-Jun-11 18:30N 25°46' W 080°11'2 4.9
2018-Jun-11 18:00N 25°46' W 080°08'1 2.3
2018-Jun-11 17:28N 25°46' W 080°10'2 3.7
2018-Jun-11 16:58N 25°47' W 080°11'3 6.1
2018-Jun-11 16:25N 25°51' W 080°10'2 4.5
2018-Jun-11 15:56N 25°53' W 080°09'3 5.1
2018-Jun-11 15:26N 25°55' W 080°08'1 2.4
2018-Jun-11 14:57N 25°56' W 080°08'3 4.2
2018-Jun-11 14:20N 25°59' W 080°08'0 0.0
2018-Jun-11 13:53N 25°59' W 080°08'0 0.0
2018-Jun-11 13:23N 25°59' W 080°08'0 0.0
2018-Jun-11 12:53N 25°59' W 080°08'0 0.0
2018-Jun-11 12:23N 25°59' W 080°08'0 0.0
2018-Jun-11 11:53N 25°59' W 080°08'0 0.0
2018-Jun-11 11:20N 25°59' W 080°08'0 0.0
2018-Jun-11 10:56N 25°59' W 080°08'0 0.0
2018-Jun-11 10:20N 25°59' W 080°08'0 0.0
2018-Jun-11 09:56N 25°59' W 080°08'0 0.0
2018-Jun-11 09:26N 25°59' W 080°08'0 0.0
2018-Jun-11 08:56N 25°59' W 080°08'0 0.0
2018-Jun-11 08:26N 25°59' W 080°08'0 0.0
2018-Jun-11 07:56N 25°59' W 080°08'0 0.0
2018-Jun-11 07:29N 25°59' W 080°08'0 0.0
2018-Jun-11 06:59N 25°59' W 080°08'0 0.0
2018-Jun-11 06:29N 25°59' W 080°08'0 0.0
2018-Jun-11 05:59N 25°59' W 080°08'0 0.0
2018-Jun-11 05:29N 25°59' W 080°08'0 0.0
2018-Jun-11 04:56N 25°59' W 080°08'0 0.0
2018-Jun-11 04:29N 25°59' W 080°08'0 0.0
2018-Jun-11 03:44N 25°59' W 080°08'0 0.0
2018-Jun-11 03:29N 25°59' W 080°08'0 0.0
2018-Jun-11 02:50N 25°59' W 080°08'0 0.0
2018-Jun-11 02:29N 25°59' W 080°08'0 0.0
2018-Jun-11 01:47N 25°59' W 080°08'0 0.0
2018-Jun-11 01:17N 25°59' W 080°08'0 0.0
2018-Jun-11 00:50N 25°59' W 080°08'0 1.0
2018-Jun-11 00:30N 25°59' W 080°08'3 3.9
2018-Jun-10 23:49N 25°56' W 080°08'0 0.3
2018-Jun-10 23:16N 25°56' W 080°08'2 7.3
2018-Jun-10 22:57N 25°53' W 080°08'4 6.5
2018-Jun-10 22:23N 25°50' W 080°10'3 7.8
2018-Jun-10 22:00N 25°47' W 080°11'1 2.6
2018-Jun-10 21:30N 25°46' W 080°11'3 0.7
2018-Jun-10 16:56N 25°43' W 080°11'3 7.6
2018-Jun-10 16:30N 25°46' W 080°11'1 2.9
2018-Jun-10 16:00N 25°47' W 080°11'3 4.9
2018-Jun-10 15:25N 25°50' W 080°10'2 5.1
2018-Jun-10 14:58N 25°52' W 080°09'4 2.7
2018-Jun-10 13:34N 25°56' W 080°08'0 0.0
2018-Jun-10 13:25N 25°56' W 080°08'3 3.1
2018-Jun-10 12:32N 25°59' W 080°08'0 0.0
2018-Jun-10 12:20N 25°59' W 080°08'0 0.0
2018-Jun-10 11:50N 25°59' W 080°08'0 0.0
2018-Jun-10 11:23N 25°59' W 080°08'0 0.0
2018-Jun-10 10:53N 25°59' W 080°08'0 0.0
2018-Jun-10 10:23N 25°59' W 080°08'0 0.0
2018-Jun-10 09:50N 25°59' W 080°08'0 0.0
2018-Jun-10 09:26N 25°59' W 080°08'0 0.0
2018-Jun-10 08:50N 25°59' W 080°08'0 0.0
2018-Jun-10 08:26N 25°59' W 080°08'0 0.0
2018-Jun-10 07:56N 25°59' W 080°08'0 0.0
2018-Jun-10 07:26N 25°59' W 080°08'0 0.0
2018-Jun-10 06:56N 25°59' W 080°08'0 0.0
2018-Jun-10 06:26N 25°59' W 080°08'0 0.0
2018-Jun-10 05:56N 25°59' W 080°08'0 0.0
2018-Jun-10 05:26N 25°59' W 080°08'0 0.0
2018-Jun-10 04:56N 25°59' W 080°08'0 0.0
2018-Jun-10 04:26N 25°59' W 080°08'0 0.0
2018-Jun-10 03:56N 25°59' W 080°08'0 0.0
2018-Jun-10 03:29N 25°59' W 080°08'0 0.0
2018-Jun-10 02:56N 25°59' W 080°08'0 0.0
2018-Jun-10 02:26N 25°59' W 080°08'0 0.0
2018-Jun-10 01:44N 25°59' W 080°08'0 0.0
2018-Jun-10 01:29N 25°59' W 080°08'0 0.0
2018-Jun-10 00:47N 25°59' W 080°08'0 0.0
2018-Jun-10 00:29N 25°59' W 080°08'0 0.0
2018-Jun-09 23:50N 25°59' W 080°08'0 0.0
2018-Jun-09 23:20N 25°59' W 080°08'1 1.4
2018-Jun-09 22:50N 25°59' W 080°08'  

Dump ship's entire track history